Kezdőlap
METAR-TAF:

METAR-TAF

Repülőterek :

Pittsburgh, Pennsylvania, Amerikai Egyesült Államok

Pittsburgh International Airport

földrajzi szélesség: 40-30-14N, földrajzi hosszúság: 080-15-59W, magasság: 366 m

Jelenlegi meteorológiai megfigyelések

A jelentés 5 perccel ezelõtt készült, 03:51 UTC
Keleti szél 7 kt
Hőmérséklet 12°C
Páratartalom 44%
Légköri nyomás 1025 hPa
Látótávolság: 16.1 km
Derült ég

METAR: KPIT 230351Z 10007KT 10SM CLR 12/00 A3027 RMK AO2 SLP256 T01220000

Idő: 23:56 (03:56 UTC)

Előrejelzés

A jelentés 1 órával és 11 perccel ezelõtt készült, 02:45 UTC
Az előrejelzés 23-én 03 óra UTC és 24-én 06 óra UTC között érvényes
Keleti szél 8 kt
Látótávolság: 10 km
Szórványos felhőzet 25000 lábon
23-én 1300 órától UTC szerint
Délkeleti szél 13 kt széllökések: 20 kt
Látótávolság: 10 km
Szórványos felhőzet 25000 lábon

TAF: KPIT 230245Z 2303/2406 08008KT P6SM SCT250 FM231300 14013G20KT P6SM SCT250

Meteorológiai megfigyelések és előrejelzések több, mint 4000 repülőtéren (METAR és TAF jelentéseket).

A térképen piros és sárga pontok jelzik az elérhető meteorológiai állomásokat.

Mozgassa az egeret a pont fölött, hogy megjelenjen az állomás neve.

Azután kattintson az időjárási megfigyelések és előrejelzések megtekintéséhez.

A térkép megváltoztatása: kattintson a fekete keresztel jelölt zöld gombra ráközelítéshez, a vonallal jelölt zöld gombra távolításhoz, vagy a zöld nyilakra a szomszédos térképek eléréséhez.


METAR-TAF: